createdAt,value
2023-01-09T00:03:57.006Z,1.15
2023-01-09T00:09:02.850Z,0.90
2023-01-09T00:14:06.637Z,1.20
2023-01-09T00:19:10.548Z,0.90
2023-01-09T00:24:15.749Z,1.12
2023-01-09T00:29:19.507Z,1.10
2023-01-09T00:34:23.275Z,1.20
2023-01-09T00:39:28.352Z,0.95
2023-01-09T00:44:36.009Z,0.85
2023-01-09T00:49:39.866Z,1.20
2023-01-09T00:54:46.014Z,1.20
2023-01-09T00:59:49.797Z,1.35
2023-01-09T01:05:11.245Z,1.50
2023-01-09T01:10:20.207Z,1.15
2023-01-09T01:15:23.985Z,1.60
2023-01-09T01:20:28.246Z,1.35
2023-01-09T01:25:33.373Z,1.90
2023-01-09T01:30:39.561Z,1.40
2023-01-09T01:35:43.280Z,2.62
2023-01-09T01:40:53.878Z,2.10
2023-01-09T01:45:57.660Z,2.47
2023-01-09T01:51:06.450Z,2.60
2023-01-09T01:56:17.024Z,3.03
2023-01-09T02:01:23.732Z,3.65
2023-01-09T02:06:28.096Z,2.97
2023-01-09T02:11:33.771Z,2.75
2023-01-09T02:16:47.961Z,2.92
2023-01-09T02:22:08.446Z,3.47
2023-01-09T02:27:43.773Z,3.30
2023-01-09T02:33:01.201Z,2.78
2023-01-09T02:38:16.185Z,3.17
2023-01-09T02:43:20.267Z,2.42
2023-01-09T02:48:25.341Z,2.15
2023-01-09T02:54:11.120Z,2.20
2023-01-09T02:59:26.045Z,1.77
2023-01-09T03:04:44.629Z,2.22
2023-01-09T03:09:50.900Z,2.40
2023-01-09T03:14:59.831Z,2.17
2023-01-09T03:20:08.553Z,1.73
2023-01-09T03:25:13.035Z,2.58
2023-01-09T03:30:17.652Z,1.67
2023-01-09T03:35:22.831Z,1.67
2023-01-09T03:40:26.693Z,2.20
2023-01-09T03:45:30.538Z,1.62
2023-01-09T03:50:35.607Z,1.75
2023-01-09T03:55:39.283Z,1.58
2023-01-09T04:00:45.705Z,1.52
2023-01-09T04:05:50.810Z,1.55
2023-01-09T04:10:54.514Z,1.75
2023-01-09T04:15:58.636Z,2.25
2023-01-09T04:21:03.785Z,1.85
2023-01-09T04:26:07.954Z,1.17
2023-01-09T04:31:11.851Z,1.10
2023-01-09T04:36:16.953Z,1.62
2023-01-09T04:41:34.708Z,1.55
2023-01-09T04:46:38.462Z,2.05
2023-01-09T04:51:43.528Z,1.55
2023-01-09T04:56:47.702Z,1.50
2023-01-09T05:01:52.305Z,1.75
2023-01-09T05:06:57.521Z,1.83
2023-01-09T05:12:01.948Z,2.12
2023-01-09T05:17:05.768Z,1.98
2023-01-09T05:22:10.957Z,1.90
2023-01-09T05:27:14.691Z,1.67
2023-01-09T05:32:18.499Z,1.87
2023-01-09T05:37:23.601Z,1.80
2023-01-09T05:42:27.347Z,2.00
2023-01-09T05:47:31.223Z,2.30
2023-01-09T05:52:36.304Z,1.60
2023-01-09T05:57:40.059Z,2.08
2023-01-09T06:02:43.941Z,2.15
2023-01-09T06:07:49.120Z,2.33
2023-01-09T06:12:54.610Z,2.22
2023-01-09T06:17:58.437Z,2.25
2023-01-09T06:23:03.578Z,3.08
2023-01-09T06:28:07.379Z,3.45
2023-01-09T06:33:11.176Z,1.90
2023-01-09T06:38:16.271Z,2.55
2023-01-09T06:43:19.990Z,1.70
2023-01-09T06:48:25.005Z,2.17
2023-01-09T06:53:30.232Z,2.00
2023-01-09T06:58:34.024Z,1.58
2023-01-09T07:03:37.810Z,1.98
2023-01-09T07:08:42.951Z,2.10
2023-01-09T07:13:46.913Z,2.42
2023-01-09T07:18:50.688Z,2.58
2023-01-09T07:23:55.757Z,2.55
2023-01-09T07:28:59.539Z,3.05
2023-01-09T07:34:03.334Z,2.78
2023-01-09T07:39:09.142Z,2.67
2023-01-09T07:44:13.079Z,3.40
2023-01-09T07:49:16.985Z,3.70
2023-01-09T07:54:22.214Z,4.05
2023-01-09T07:59:26.215Z,3.75
2023-01-09T08:04:30.082Z,4.53
2023-01-09T08:09:35.254Z,4.03
2023-01-09T08:14:39.018Z,4.32
2023-01-09T08:19:43.932Z,4.95
2023-01-09T08:24:49.029Z,4.53
2023-01-09T08:29:52.721Z,4.10
2023-01-09T08:34:56.623Z,8.50
2023-01-09T08:40:01.806Z,7.03
2023-01-09T08:45:23.819Z,8.00
2023-01-09T08:50:28.325Z,8.00
2023-01-09T08:55:33.409Z,9.75
2023-01-09T09:00:37.234Z,10.45
2023-01-09T09:05:41.074Z,8.27
2023-01-09T09:10:46.174Z,7.93
2023-01-09T09:15:49.954Z,8.85
2023-01-09T09:20:53.781Z,8.90
2023-01-09T09:25:58.892Z,8.82
2023-01-09T09:31:02.834Z,7.60
2023-01-09T09:36:07.587Z,8.27
2023-01-09T09:41:46.467Z,9.13
2023-01-09T09:47:00.858Z,7.68
2023-01-09T09:52:14.884Z,6.62
2023-01-09T09:57:29.441Z,7.30
2023-01-09T10:02:44.170Z,6.10
2023-01-09T10:07:51.058Z,4.93
2023-01-09T10:12:58.524Z,5.20
2023-01-09T10:18:15.874Z,5.60
2023-01-09T10:23:33.186Z,6.40
2023-01-09T10:29:15.030Z,6.85
2023-01-09T10:34:32.287Z,7.90
2023-01-09T10:39:42.342Z,6.32
2023-01-09T10:44:53.316Z,5.65
2023-01-09T10:49:57.994Z,6.18
2023-01-09T10:55:06.332Z,6.12
2023-01-09T11:05:24.763Z,5.90
2023-01-09T11:10:47.299Z,5.45
2023-01-09T11:16:09.567Z,5.10
2023-01-09T11:21:15.456Z,5.30
2023-01-09T11:26:25.024Z,5.90
2023-01-09T11:31:30.478Z,6.15
2023-01-09T11:36:34.552Z,6.62
2023-01-09T11:41:38.525Z,6.37
2023-01-09T11:46:44.692Z,5.53
2023-01-09T11:52:12.877Z,5.97
2023-01-09T12:02:39.960Z,5.85
2023-01-09T12:08:19.891Z,5.12
2023-01-09T12:13:42.671Z,4.65
2023-01-09T12:19:07.479Z,5.53
2023-01-09T12:24:36.270Z,5.37
2023-01-09T12:29:57.436Z,5.45
2023-01-09T12:35:11.189Z,6.12
2023-01-09T12:40:29.812Z,7.00
2023-01-09T12:45:47.534Z,6.20
2023-01-09T12:51:16.858Z,5.70
2023-01-09T12:56:26.155Z,5.57
2023-01-09T13:01:33.819Z,3.80
2023-01-09T13:06:43.993Z,3.23
2023-01-09T13:11:52.455Z,2.90
2023-01-09T13:16:59.310Z,3.58
2023-01-09T13:22:06.420Z,3.25
2023-01-09T13:27:14.351Z,3.45
2023-01-09T13:32:32.026Z,3.08
2023-01-09T13:37:38.136Z,3.17
2023-01-09T13:42:46.274Z,3.33
2023-01-09T13:48:24.265Z,3.80
2023-01-09T13:53:46.690Z,3.90
2023-01-09T13:59:03.802Z,4.57
2023-01-09T14:04:37.595Z,3.85
2023-01-09T14:09:48.562Z,3.60
2023-01-09T14:14:54.767Z,3.15
2023-01-09T14:20:01.041Z,3.65
2023-01-09T14:25:10.227Z,2.62
2023-01-09T14:30:34.802Z,2.30
2023-01-09T14:35:44.013Z,3.05
2023-01-09T14:40:54.753Z,1.83
2023-01-09T14:46:05.579Z,1.08
2023-01-09T14:51:16.095Z,1.20
2023-01-09T14:56:30.179Z,1.40
2023-01-09T15:01:36.980Z,1.60
2023-01-09T15:06:43.995Z,1.02
2023-01-09T15:11:49.320Z,1.85
2023-01-09T15:16:53.278Z,1.60
2023-01-09T15:21:58.924Z,1.98
2023-01-09T15:27:11.310Z,1.90
2023-01-09T15:32:19.732Z,2.45
2023-01-09T15:37:30.078Z,2.28
2023-01-09T15:42:57.436Z,1.77
2023-01-09T15:48:21.964Z,2.53
2023-01-09T15:53:27.792Z,2.40
2023-01-09T15:58:36.892Z,2.35
2023-01-09T16:03:40.683Z,2.53
2023-01-09T16:08:52.313Z,3.10
2023-01-09T16:14:04.092Z,2.75
2023-01-09T16:19:32.413Z,2.75
2023-01-09T16:24:41.380Z,2.60
2023-01-09T16:29:49.861Z,3.42
2023-01-09T16:34:55.429Z,2.90
2023-01-09T16:40:32.150Z,5.45
2023-01-09T16:45:39.142Z,4.18
2023-01-09T16:50:44.087Z,3.05
2023-01-09T16:55:47.997Z,3.85
2023-01-09T17:00:53.235Z,3.42
2023-01-09T17:05:59.876Z,3.37
2023-01-09T17:11:05.298Z,2.65
2023-01-09T17:16:11.890Z,2.10
2023-01-09T17:21:18.914Z,2.37
2023-01-09T17:26:40.314Z,1.42
2023-01-09T17:31:45.602Z,2.62
2023-01-09T17:36:49.381Z,2.08
2023-01-09T17:41:53.636Z,2.50
2023-01-09T17:46:58.758Z,1.83
2023-01-09T17:52:02.582Z,1.92
2023-01-09T17:57:07.496Z,2.37
2023-01-09T18:02:17.951Z,3.15
2023-01-09T18:07:21.932Z,3.35
2023-01-09T18:12:25.722Z,3.45
2023-01-09T18:17:30.880Z,4.40
2023-01-09T18:22:35.376Z,5.82
2023-01-09T18:27:40.088Z,3.60
2023-01-09T18:32:45.523Z,1.92
2023-01-09T18:37:49.621Z,2.25
2023-01-09T18:42:53.371Z,2.72
2023-01-09T18:47:58.543Z,2.53
2023-01-09T18:53:02.673Z,2.40
2023-01-09T18:58:07.838Z,2.08
2023-01-09T19:03:15.066Z,4.43
2023-01-09T19:08:21.455Z,6.30
2023-01-09T19:13:25.937Z,3.17
2023-01-09T19:18:34.499Z,4.78
2023-01-09T19:23:38.456Z,2.70
2023-01-09T19:28:44.920Z,3.87
2023-01-09T19:33:50.238Z,3.45
2023-01-09T19:38:56.999Z,4.35
2023-01-09T19:44:01.286Z,4.82
2023-01-09T19:49:06.422Z,5.40
2023-01-09T19:54:11.907Z,5.10
2023-01-09T19:59:15.935Z,5.18
2023-01-09T20:04:21.082Z,5.82
2023-01-09T20:09:27.475Z,6.50
2023-01-09T20:14:31.553Z,7.68
2023-01-09T20:19:36.635Z,7.37
2023-01-09T20:24:40.642Z,6.55
2023-01-09T20:29:44.670Z,7.18
2023-01-09T20:34:50.149Z,5.70
2023-01-09T20:39:54.030Z,4.93
2023-01-09T20:44:57.829Z,4.87
2023-01-09T20:50:02.968Z,3.60
2023-01-09T20:55:07.077Z,4.00
2023-01-09T21:00:13.746Z,3.72
2023-01-09T21:05:18.981Z,3.72
2023-01-09T21:10:22.801Z,3.47
2023-01-09T21:15:26.714Z,3.03
2023-01-09T21:20:31.922Z,3.58
2023-01-09T21:25:35.907Z,3.03
2023-01-09T21:30:39.657Z,2.58
2023-01-09T21:35:44.854Z,2.83
2023-01-09T21:40:50.518Z,2.90
2023-01-09T21:46:12.087Z,2.85
2023-01-09T21:51:17.242Z,3.85
2023-01-09T21:56:21.572Z,2.78
2023-01-09T22:01:25.351Z,3.60
2023-01-09T22:06:30.530Z,3.87
2023-01-09T22:11:34.341Z,4.93
2023-01-09T22:16:38.243Z,4.43
2023-01-09T22:21:43.382Z,3.97
2023-01-09T22:26:47.498Z,3.45
2023-01-09T22:31:51.439Z,4.72
2023-01-09T22:36:56.752Z,3.97
2023-01-09T22:42:00.618Z,4.75
2023-01-09T22:47:04.642Z,3.78
2023-01-09T22:52:09.799Z,4.30
2023-01-09T22:57:13.598Z,3.85
2023-01-09T23:02:17.512Z,4.85
2023-01-09T23:07:22.786Z,3.40
2023-01-09T23:12:26.566Z,3.75
2023-01-09T23:17:30.353Z,4.40
2023-01-09T23:22:35.541Z,3.50
2023-01-09T23:27:39.310Z,6.78
2023-01-09T23:32:44.210Z,6.12
2023-01-09T23:37:49.324Z,6.87
2023-01-09T23:43:19.360Z,6.75
2023-01-09T23:48:23.203Z,9.13
2023-01-09T23:53:32.750Z,4.82
2023-01-09T23:58:37.212Z,4.25
